Time;durP1;ratioP1;P1;durP2;ratioP2;P2;SDS_P1;SDS_P2;PMS_P1;PMS_P2;Temp;Humidity;BMP_temperature;BMP_pressure;BME280_temperature;BME280_humidity;BME280_pressure;Samples;Min_cycle;Max_cycle;Signal;HPM_P1;HPM_P2
2021/03/25 00:00:28;;;;;;;37.33;24.55;;;8.40;84.10;;;;;;5049702;28;20052;-75
2021/03/25 00:02:56;;;;;;;38.95;22.85;;;8.40;84.10;;;;;;5063135;28;20043;-75
2021/03/25 00:05:26;;;;;;;36.75;21.00;;;8.40;84.00;;;;;;5028795;28;20044;-75
2021/03/25 00:07:53;;;;;;;34.50;22.42;;;8.40;83.90;;;;;;5047777;28;20062;-75
2021/03/25 00:10:30;;;;;;;41.55;25.88;;;8.50;84.00;;;;;;5013487;28;20797;-75
2021/03/25 00:12:58;;;;;;;39.33;24.63;;;8.40;84.00;;;;;;5029349;28;20907;-75
2021/03/25 00:15:25;;;;;;;39.70;23.15;;;8.40;84.10;;;;;;5045994;28;20036;-76
2021/03/25 00:17:52;;;;;;;34.95;22.88;;;8.50;84.20;;;;;;5062447;28;20053;-76
2021/03/25 00:20:19;;;;;;;40.42;25.13;;;8.50;84.10;;;;;;5063724;28;20407;-76
2021/03/25 00:22:46;;;;;;;45.55;27.92;;;8.50;84.20;;;;;;5027595;28;20047;-75
2021/03/25 00:25:16;;;;;;;38.65;24.45;;;8.50;84.40;;;;;;5045833;28;20036;-76
2021/03/25 00:27:42;;;;;;;42.95;25.67;;;8.40;84.50;;;;;;5061320;28;20871;-76
2021/03/25 00:30:11;;;;;;;42.42;24.60;;;8.40;84.60;;;;;;5043643;28;20028;-76
2021/03/25 00:32:38;;;;;;;37.03;21.30;;;8.40;84.70;;;;;;5044231;28;20035;-76
2021/03/25 00:35:07;;;;;;;33.97;21.70;;;8.30;84.70;;;;;;5027623;28;20053;-76
2021/03/25 00:37:34;;;;;;;53.92;29.65;;;8.30;84.90;;;;;;5029982;28;20036;-80
2021/03/25 00:40:00;;;;;;;46.20;26.45;;;8.30;84.90;;;;;;5047583;28;20040;-80
2021/03/25 00:42:27;;;;;;;45.25;27.23;;;8.20;85.00;;;;;;5013285;28;20451;-80
2021/03/25 00:44:53;;;;;;;37.53;22.67;;;8.20;85.10;;;;;;5030349;28;20041;-80
2021/03/25 00:47:20;;;;;;;55.83;33.67;;;8.20;85.20;;;;;;5030027;28;20490;-80
2021/03/25 00:49:46;;;;;;;75.85;45.30;;;8.20;85.30;;;;;;5045942;28;20041;-80
2021/03/25 00:52:13;;;;;;;58.30;35.40;;;8.20;85.40;;;;;;5044891;28;20035;-79
2021/03/25 00:54:39;;;;;;;44.38;28.50;;;8.20;85.50;;;;;;5045397;28;20036;-80
2021/03/25 00:57:07;;;;;;;43.17;26.27;;;8.10;85.50;;;;;;5046863;28;20036;-79
2021/03/25 00:59:33;;;;;;;41.45;26.38;;;8.10;85.60;;;;;;5046644;28;20051;-80
2021/03/25 01:02:01;;;;;;;95.13;55.35;;;8.00;85.70;;;;;;5023104;28;20534;-80
2021/03/25 01:04:28;;;;;;;76.88;46.05;;;8.10;85.90;;;;;;5043913;28;20024;-80
2021/03/25 01:06:54;;;;;;;68.18;42.42;;;8.10;85.90;;;;;;5045354;28;20032;-80
2021/03/25 01:09:23;;;;;;;63.47;37.05;;;8.10;86.00;;;;;;5028858;28;20381;-80
2021/03/25 01:11:51;;;;;;;51.67;30.30;;;8.10;86.00;;;;;;5063697;28;20051;-80
2021/03/25 01:14:20;;;;;;;45.25;28.63;;;8.00;85.90;;;;;;5028054;28;20060;-80
2021/03/25 01:16:48;;;;;;;35.30;22.30;;;8.10;85.90;;;;;;5030090;28;20041;-80
2021/03/25 01:19:25;;;;;;;39.47;27.25;;;8.10;85.80;;;;;;5029919;28;20035;-80
2021/03/25 01:21:53;;;;;;;42.92;25.63;;;8.10;85.90;;;;;;5023213;28;20507;-80
2021/03/25 01:24:21;;;;;;;37.88;23.88;;;8.10;85.90;;;;;;5026381;28;20060;-79
2021/03/25 01:26:49;;;;;;;37.75;23.35;;;8.10;85.90;;;;;;5030641;28;20036;-80
2021/03/25 01:29:17;;;;;;;37.22;25.00;;;8.10;85.90;;;;;;5046349;28;20074;-80
2021/03/25 01:31:44;;;;;;;39.72;25.05;;;8.20;85.90;;;;;;5029571;28;20067;-80
2021/03/25 01:34:16;;;;;;;40.55;26.35;;;8.20;86.00;;;;;;5046601;28;20041;-80
2021/03/25 01:36:43;;;;;;;39.30;25.27;;;8.10;86.10;;;;;;5045288;28;20045;-80
2021/03/25 01:39:11;;;;;;;40.88;24.50;;;8.10;86.10;;;;;;5030626;28;20036;-80
2021/03/25 01:41:39;;;;;;;43.05;25.33;;;8.20;86.20;;;;;;5029097;28;20033;-80
2021/03/25 01:44:30;;;;;;;42.92;27.08;;;8.20;86.20;;;;;;5045631;28;20052;-80
2021/03/25 01:46:57;;;;;;;41.30;25.55;;;8.20;86.50;;;;;;5047595;28;20028;-80
2021/03/25 01:49:24;;;;;;;41.08;27.10;;;8.20;86.30;;;;;;5015531;28;20044;-80
2021/03/25 01:52:00;;;;;;;41.53;25.15;;;8.10;86.30;;;;;;5048200;28;20503;-80
2021/03/25 01:54:52;;;;;;;46.92;27.73;;;8.10;86.50;;;;;;5032437;28;20410;-79
2021/03/25 01:57:25;;;;;;;47.58;25.52;;;8.20;86.50;;;;;;5047314;28;20044;-80
2021/03/25 02:00:10;;;;;;;38.10;24.85;;;8.20;86.50;;;;;;5032055;28;20047;-80
2021/03/25 02:03:10;;;;;;;36.03;22.08;;;8.20;86.40;;;;;;5065289;28;20509;-80
2021/03/25 02:05:45;;;;;;;46.47;26.38;;;8.20;86.30;;;;;;5048445;28;20040;-80
2021/03/25 02:08:14;;;;;;;40.28;25.10;;;8.30;86.20;;;;;;5048812;28;20399;-80
2021/03/25 02:10:44;;;;;;;49.15;30.67;;;8.30;86.10;;;;;;5049246;28;20029;-80
2021/03/25 02:13:43;;;;;;;49.80;32.25;;;8.30;86.10;;;;;;5047221;28;20487;-80
2021/03/25 02:16:21;;;;;;;48.22;30.17;;;8.30;86.60;;;;;;5048705;28;20029;-80
2021/03/25 02:19:17;;;;;;;44.08;27.83;;;8.30;86.40;;;;;;5064944;28;20044;-80
2021/03/25 02:21:59;;;;;;;48.88;29.60;;;8.30;86.50;;;;;;5029911;28;20036;-80
2021/03/25 02:24:41;;;;;;;53.60;28.63;;;8.30;86.70;;;;;;5065240;28;20115;-80
2021/03/25 02:27:38;;;;;;;47.75;28.88;;;8.30;86.70;;;;;;5063900;28;20044;-79
2021/03/25 02:30:18;;;;;;;44.33;26.33;;;8.30;87.00;;;;;;5049490;28;20032;-80
2021/03/25 02:33:09;;;;;;;46.58;28.40;;;8.30;86.80;;;;;;5047314;28;20037;-80
2021/03/25 02:35:49;;;;;;;43.78;24.90;;;8.30;86.70;;;;;;5049182;28;20040;-80
2021/03/25 02:38:38;;;;;;;40.25;25.45;;;8.40;86.80;;;;;;5047485;28;20040;-80
2021/03/25 02:41:26;;;;;;;48.33;26.70;;;8.40;86.70;;;;;;5066087;28;20919;-80
2021/03/25 02:44:10;;;;;;;40.40;25.13;;;8.40;86.80;;;;;;5046550;28;20051;-80
2021/03/25 02:46:51;;;;;;;42.88;27.58;;;8.40;86.70;;;;;;5048049;28;20044;-80
2021/03/25 02:49:22;;;;;;;42.28;26.50;;;8.50;86.70;;;;;;5046918;28;20044;-80
2021/03/25 02:52:47;;;;;;;43.58;26.58;;;8.40;86.60;;;;;;5048270;28;20036;-80
2021/03/25 02:55:17;;;;;;;44.47;26.88;;;8.50;86.80;;;;;;4985988;28;20053;-80
2021/03/25 02:58:20;;;;;;;45.78;28.00;;;8.50;86.70;;;;;;5022455;28;20041;-80
2021/03/25 03:00:59;;;;;;;42.78;26.52;;;8.50;86.80;;;;;;5066356;28;20061;-80
2021/03/25 03:03:40;;;;;;;41.53;26.08;;;8.50;86.80;;;;;;5046905;28;20055;-80
2021/03/25 03:06:41;;;;;;;40.75;25.35;;;8.50;86.80;;;;;;5063780;28;20040;-80
2021/03/25 03:09:17;;;;;;;44.17;26.38;;;8.50;86.80;;;;;;5047654;28;20052;-80
2021/03/25 03:11:48;;;;;;;41.72;24.92;;;8.50;86.70;;;;;;5065152;28;20036;-80
2021/03/25 03:14:53;;;;;;;47.47;30.35;;;8.50;86.80;;;;;;5030633;28;20051;-80
2021/03/25 03:17:31;;;;;;;49.25;28.52;;;8.50;86.90;;;;;;5026859;28;20032;-80
2021/03/25 03:20:32;;;;;;;41.60;27.10;;;8.60;86.90;;;;;;5063425;28;20032;-80
2021/03/25 03:23:27;;;;;;;43.60;26.30;;;8.60;86.90;;;;;;5040745;28;20047;-80
2021/03/25 03:25:56;;;;;;;49.30;28.52;;;8.60;86.80;;;;;;5047840;28;20036;-80
2021/03/25 03:28:35;;;;;;;47.65;29.00;;;8.60;86.90;;;;;;5029309;28;20024;-80
2021/03/25 03:31:28;;;;;;;43.90;27.27;;;8.60;86.90;;;;;;5047963;28;20359;-80
2021/03/25 03:34:09;;;;;;;41.22;25.63;;;8.60;86.90;;;;;;5028410;28;20040;-80
2021/03/25 03:36:39;;;;;;;45.35;28.48;;;8.60;86.80;;;;;;5047773;28;20027;-80
2021/03/25 03:39:10;;;;;;;47.75;29.00;;;8.60;86.80;;;;;;5031320;28;20029;-80
2021/03/25 03:41:50;;;;;;;50.83;31.08;;;8.60;86.90;;;;;;5047202;28;20502;-80
2021/03/25 03:44:22;;;;;;;50.88;30.00;;;8.70;87.00;;;;;;5046764;28;20035;-80
2021/03/25 03:46:51;;;;;;;47.17;28.17;;;8.70;86.80;;;;;;5046576;28;20040;-80
2021/03/25 03:49:30;;;;;;;48.33;29.58;;;8.70;86.80;;;;;;5048259;28;20021;-80
2021/03/25 03:52:06;;;;;;;50.78;31.48;;;8.70;86.90;;;;;;5030013;28;20068;-80
2021/03/25 04:04:50;;;;;;;49.95;29.88;;;8.70;86.70;;;;;;5114237;24;20063;-76
2021/03/25 04:07:51;;;;;;;47.22;29.60;;;8.80;86.70;;;;;;4776707;29;20043;-75
2021/03/25 04:10:45;;;;;;;47.67;29.00;;;8.80;86.70;;;;;;4793643;29;20043;-75
2021/03/25 04:13:23;;;;;;;53.35;31.42;;;8.70;86.70;;;;;;4761852;30;20423;-75
2021/03/25 04:15:52;;;;;;;54.85;31.30;;;8.70;86.70;;;;;;4778452;30;20056;-75
2021/03/25 04:18:48;;;;;;;52.25;33.17;;;8.80;86.70;;;;;;4764092;30;20479;-77
2021/03/25 04:21:36;;;;;;;;;;;8.80;86.90;;;;;;4777833;29;20031;-76
2021/03/25 04:24:06;;;;;;;52.72;30.10;;;8.80;86.70;;;;;;4762753;30;19917;-75
2021/03/25 04:27:01;;;;;;;59.97;37.13;;;8.80;86.70;;;;;;4778064;30;20102;-75
2021/03/25 04:29:36;;;;;;;51.95;32.10;;;8.80;86.90;;;;;;4778151;30;20039;-74
2021/03/25 04:32:04;;;;;;;62.97;37.17;;;8.80;87.00;;;;;;4778528;30;20047;-76
2021/03/25 04:34:31;;;;;;;54.00;32.95;;;8.80;87.00;;;;;;4778771;29;20046;-76
2021/03/25 04:36:58;;;;;;;52.00;31.15;;;8.70;87.00;;;;;;4748495;30;20487;-76
2021/03/25 04:39:25;;;;;;;53.65;33.70;;;8.70;87.00;;;;;;4762943;30;20046;-76
2021/03/25 04:41:54;;;;;;;55.55;32.95;;;8.70;87.10;;;;;;4777267;29;20392;-74
2021/03/25 04:44:43;;;;;;;54.35;34.58;;;8.70;87.10;;;;;;4776879;29;20027;-74
2021/03/25 04:47:30;;;;;;;58.42;35.13;;;8.70;87.20;;;;;;4793038;29;20046;-78
2021/03/25 04:50:21;;;;;;;59.42;35.58;;;8.80;87.10;;;;;;4778539;30;20051;-78
2021/03/25 04:52:47;;;;;;;58.13;34.92;;;8.80;87.20;;;;;;4775557;30;20039;-78
2021/03/25 04:55:14;;;;;;;51.70;32.53;;;8.80;87.00;;;;;;4778388;29;20058;-78
2021/03/25 04:57:51;;;;;;;55.88;35.33;;;8.80;87.00;;;;;;4779809;29;20061;-78
2021/03/25 05:00:23;;;;;;;50.00;31.77;;;8.80;87.10;;;;;;4780444;29;20834;-78
2021/03/25 05:02:49;;;;;;;50.63;32.42;;;8.80;87.20;;;;;;4777817;29;20054;-79
2021/03/25 05:05:21;;;;;;;53.72;33.53;;;8.80;87.20;;;;;;4761477;30;20060;-78
2021/03/25 05:07:54;;;;;;;53.97;32.22;;;8.80;87.30;;;;;;4763885;30;20545;-79
2021/03/25 05:10:32;;;;;;;57.22;34.40;;;8.80;87.20;;;;;;4761213;30;20051;-79
2021/03/25 05:12:59;;;;;;;62.80;38.03;;;8.80;87.30;;;;;;4760222;30;20051;-78
2021/03/25 05:15:27;;;;;;;58.83;35.60;;;8.70;87.20;;;;;;4760750;30;20050;-78
2021/03/25 05:17:59;;;;;;;60.83;34.63;;;8.70;87.40;;;;;;4762014;30;20522;-79
2021/03/25 05:20:47;;;;;;;51.60;30.10;;;8.70;87.60;;;;;;4746263;30;20040;-78
2021/03/25 05:23:49;;;;;;;53.00;31.95;;;8.70;87.50;;;;;;4760739;30;20538;-78
2021/03/25 05:26:23;;;;;;;55.72;33.85;;;8.70;87.50;;;;;;4758636;30;20059;-78
2021/03/25 05:29:00;;;;;;;50.50;32.30;;;8.60;87.50;;;;;;4764658;30;20044;-78
2021/03/25 05:31:28;;;;;;;53.88;33.50;;;8.60;87.70;;;;;;4764564;30;20043;-78
2021/03/25 05:33:57;;;;;;;53.67;32.60;;;8.50;87.70;;;;;;4748740;30;20043;-78
2021/03/25 05:36:25;;;;;;;61.17;37.15;;;8.40;87.80;;;;;;4765118;30;20046;-78
2021/03/25 05:38:54;;;;;;;51.95;31.92;;;8.40;88.00;;;;;;4749430;30;20036;-78
2021/03/25 05:41:23;;;;;;;66.97;38.38;;;8.30;88.10;;;;;;4763508;30;20043;-80
2021/03/25 05:44:44;;;;;;;50.92;32.28;;;8.20;88.40;;;;;;4764994;30;20128;-82
2021/03/25 05:47:41;;;;;;;52.30;31.27;;;8.10;88.60;;;;;;4734483;30;20039;-82
2021/03/25 05:50:47;;;;;;;51.20;31.23;;;8.00;88.70;;;;;;4764444;30;20044;-80
2021/03/25 05:53:41;;;;;;;53.58;32.55;;;7.90;88.80;;;;;;4762157;30;20062;-80
2021/03/25 05:56:21;;;;;;;64.28;37.45;;;7.80;88.90;;;;;;4733565;30;20058;-79
2021/03/25 05:59:05;;;;;;;52.67;33.13;;;7.70;89.80;;;;;;4765592;30;20051;-80
2021/03/25 06:01:50;;;;;;;60.70;37.08;;;7.70;89.50;;;;;;4761982;30;20048;-80
2021/03/25 06:04:45;;;;;;;67.90;39.13;;;7.70;89.70;;;;;;4763957;30;20060;-80
2021/03/25 06:07:14;;;;;;;56.55;34.60;;;7.60;89.60;;;;;;4761792;30;20055;-80
2021/03/25 06:10:15;;;;;;;56.78;34.58;;;7.70;89.70;;;;;;4765987;30;20051;-80
2021/03/25 06:13:11;;;;;;;63.13;37.35;;;7.70;90.00;;;;;;4748322;30;20051;-75
2021/03/25 06:15:56;;;;;;;55.53;34.35;;;7.70;90.00;;;;;;4762612;30;20055;-75
2021/03/25 06:18:53;;;;;;;64.15;38.83;;;7.70;89.80;;;;;;4763695;30;20047;-76
2021/03/25 06:21:29;;;;;;;66.43;37.88;;;7.70;90.00;;;;;;4760944;30;20043;-76
2021/03/25 06:23:55;;;;;;;53.40;28.67;;;7.60;90.00;;;;;;4762066;30;20054;-76
2021/03/25 06:27:08;;;;;;;60.78;34.38;;;7.60;90.00;;;;;;4763882;30;20060;-77
2021/03/25 06:29:41;;;;;;;65.37;36.20;;;7.60;90.10;;;;;;4753815;30;20059;-76
2021/03/25 06:32:15;;;;;;;63.55;36.42;;;7.60;90.10;;;;;;4762343;30;20776;-75
2021/03/25 06:34:50;;;;;;;59.20;36.07;;;7.50;90.20;;;;;;4762177;30;20050;-75
2021/03/25 06:37:43;;;;;;;70.00;40.05;;;7.60;90.20;;;;;;4762487;30;20035;-75
2021/03/25 06:40:21;;;;;;;58.08;34.95;;;7.60;90.40;;;;;;4760779;30;20050;-75
2021/03/25 06:42:56;;;;;;;55.15;32.80;;;7.70;90.30;;;;;;4760803;30;20054;-75
2021/03/25 06:45:33;;;;;;;53.78;31.17;;;7.90;90.20;;;;;;4762844;30;20059;-76
2021/03/25 06:47:59;;;;;;;62.75;35.67;;;8.00;90.20;;;;;;4732078;30;20054;-75
2021/03/25 06:50:42;;;;;;;75.28;41.47;;;8.20;90.00;;;;;;4761931;30;20048;-75
2021/03/25 06:53:28;;;;;;;66.40;38.53;;;8.40;90.10;;;;;;4762244;30;20050;-75
2021/03/25 06:55:58;;;;;;;67.30;39.38;;;8.50;90.00;;;;;;4761359;30;20510;-75
2021/03/25 06:58:33;;;;;;;74.13;42.35;;;8.70;89.80;;;;;;4775000;30;20051;-75
2021/03/25 07:01:20;;;;;;;69.53;40.00;;;8.80;89.80;;;;;;4763748;30;20419;-76
2021/03/25 07:03:53;;;;;;;71.82;40.88;;;8.90;89.60;;;;;;4762224;30;20408;-75
2021/03/25 07:06:20;;;;;;;69.00;41.38;;;8.90;89.50;;;;;;4763227;30;20039;-75
2021/03/25 07:08:48;;;;;;;73.50;42.95;;;8.90;89.80;;;;;;4762129;30;20067;-75
2021/03/25 07:11:18;;;;;;;67.93;40.47;;;8.90;90.00;;;;;;4762653;30;20052;-75
2021/03/25 07:13:57;;;;;;;78.30;43.70;;;8.90;90.00;;;;;;4752804;30;20050;-75
2021/03/25 07:16:25;;;;;;;71.13;41.80;;;8.90;90.10;;;;;;4763223;30;20050;-75
2021/03/25 07:19:06;;;;;;;75.13;43.03;;;8.80;90.20;;;;;;4763681;30;20047;-75
2021/03/25 07:21:42;;;;;;;65.22;39.35;;;8.80;90.30;;;;;;4778718;29;20032;-76
2021/03/25 07:24:32;;;;;;;66.13;41.63;;;8.80;90.40;;;;;;4776496;29;20119;-76
2021/03/25 07:27:19;;;;;;;72.35;40.33;;;8.80;90.40;;;;;;4766234;30;20071;-76
2021/03/25 07:29:58;;;;;;;66.30;38.22;;;8.90;90.40;;;;;;4767989;30;20047;-75
2021/03/25 07:32:31;;;;;;;70.43;40.17;;;9.00;90.30;;;;;;4774737;29;20879;-76
2021/03/25 07:35:11;;;;;;;73.40;45.58;;;9.20;90.30;;;;;;4760797;30;20499;-76
2021/03/25 07:37:41;;;;;;;68.75;41.38;;;9.40;90.20;;;;;;4761430;30;20048;-75
2021/03/25 07:40:26;;;;;;;77.05;46.55;;;9.50;90.10;;;;;;4762683;30;20036;-75
2021/03/25 07:42:55;;;;;;;78.43;45.58;;;9.70;90.00;;;;;;4760124;30;20066;-77
2021/03/25 07:45:32;;;;;;;73.63;44.97;;;9.80;89.70;;;;;;4775582;29;20456;-77
2021/03/25 07:48:17;;;;;;;84.25;50.08;;;9.90;89.70;;;;;;4763053;29;20087;-77
2021/03/25 07:50:45;;;;;;;98.63;54.90;;;10.00;89.70;;;;;;4761887;30;20050;-78
2021/03/25 07:53:25;;;;;;;86.13;50.47;;;10.10;89.60;;;;;;4744808;30;20039;-78
2021/03/25 07:56:19;;;;;;;75.35;46.83;;;10.10;89.60;;;;;;4772110;29;20491;-77
2021/03/25 07:58:48;;;;;;;73.00;45.15;;;10.20;89.40;;;;;;4741722;29;20052;-77
2021/03/25 08:01:20;;;;;;;85.13;50.20;;;10.20;89.20;;;;;;4763942;30;20043;-78
2021/03/25 08:03:56;;;;;;;78.50;47.40;;;10.30;89.20;;;;;;4763656;30;20064;-77
2021/03/25 08:06:35;;;;;;;77.28;47.28;;;10.40;89.20;;;;;;4765428;30;20043;-77
2021/03/25 08:09:12;;;;;;;73.97;44.85;;;10.60;89.00;;;;;;4765542;30;20063;-77
2021/03/25 08:11:58;;;;;;;80.72;51.58;;;10.80;88.70;;;;;;4748177;30;20036;-77
2021/03/25 08:14:27;;;;;;;76.45;50.38;;;11.00;88.20;;;;;;4774855;29;20048;-77
2021/03/25 08:17:02;;;;;;;74.82;48.95;;;11.30;87.70;;;;;;4760443;30;20415;-77
2021/03/25 08:20:16;;;;;;;76.43;49.22;;;11.60;87.10;;;;;;4758793;30;20036;-77
2021/03/25 08:22:46;;;;;;;68.10;43.25;;;11.70;86.30;;;;;;4712315;30;20484;-77
2021/03/25 08:25:21;;;;;;;65.45;42.35;;;11.80;86.20;;;;;;4756010;30;20051;-77
2021/03/25 08:27:53;;;;;;;74.72;48.95;;;11.90;86.00;;;;;;4774508;29;20043;-77
2021/03/25 08:30:48;;;;;;;71.68;43.85;;;12.00;85.70;;;;;;4759387;30;20044;-77
2021/03/25 08:33:45;;;;;;;75.93;46.83;;;12.10;85.20;;;;;;4758134;30;20055;-77
2021/03/25 08:36:31;;;;;;;67.43;42.35;;;12.20;84.90;;;;;;4761843;29;20063;-77
2021/03/25 08:39:26;;;;;;;71.25;46.63;;;12.20;84.90;;;;;;4762257;30;20062;-77
2021/03/25 08:42:37;;;;;;;67.65;43.15;;;12.30;84.40;;;;;;4760979;30;20048;-77
2021/03/25 08:45:32;;;;;;;66.85;42.75;;;12.50;84.20;;;;;;4754414;30;20047;-82
2021/03/25 08:48:02;;;;;;;60.00;37.85;;;12.70;83.60;;;;;;4750789;30;20082;-82
2021/03/25 08:50:41;;;;;;;58.63;36.22;;;12.70;83.40;;;;;;4761288;30;20046;-82
2021/03/25 08:53:20;;;;;;;60.88;40.03;;;12.70;83.50;;;;;;4762581;30;20086;-80
2021/03/25 08:55:51;;;;;;;68.47;42.55;;;12.90;83.10;;;;;;4762750;30;20059;-80
2021/03/25 08:58:21;;;;;;;53.40;35.83;;;13.00;82.30;;;;;;4753966;30;20043;-80
2021/03/25 09:00:55;;;;;;;55.55;36.60;;;13.10;82.30;;;;;;4768331;30;20048;-80
2021/03/25 09:03:34;;;;;;;59.78;36.15;;;13.30;81.90;;;;;;4743265;30;20058;-83
2021/03/25 09:06:16;;;;;;;57.30;37.40;;;13.40;81.50;;;;;;4778138;30;20066;-82
2021/03/25 09:08:46;;;;;;;47.95;32.45;;;13.60;80.80;;;;;;4765451;30;20050;-83
2021/03/25 09:11:16;;;;;;;51.58;34.15;;;13.70;80.50;;;;;;4762970;30;20067;-83
2021/03/25 09:13:55;;;;;;;53.40;37.63;;;13.90;80.00;;;;;;4738933;30;20040;-83
2021/03/25 09:16:32;;;;;;;59.45;37.15;;;14.00;79.50;;;;;;4779524;30;20055;-81
2021/03/25 09:19:00;;;;;;;58.28;38.97;;;14.20;79.30;;;;;;4765547;30;20047;-83
2021/03/25 09:21:30;;;;;;;55.40;34.70;;;14.30;78.50;;;;;;4769813;30;20075;-82
2021/03/25 09:23:59;;;;;;;53.33;35.40;;;14.50;77.60;;;;;;4779180;30;20048;-82
2021/03/25 09:26:26;;;;;;;52.10;33.75;;;14.60;77.00;;;;;;4766037;30;20047;-82
2021/03/25 09:28:58;;;;;;;50.95;33.10;;;14.70;76.80;;;;;;4765528;30;20062;-82
2021/03/25 09:31:37;;;;;;;45.28;34.15;;;14.90;76.60;;;;;;4750032;30;20407;-82
2021/03/25 09:34:13;;;;;;;49.78;34.13;;;15.10;76.10;;;;;;4726060;30;20070;-82
2021/03/25 09:36:48;;;;;;;53.17;34.03;;;15.10;75.30;;;;;;4765156;30;20062;-82
2021/03/25 09:39:29;;;;;;;47.92;33.13;;;15.10;75.10;;;;;;4778239;30;20047;-78
2021/03/25 09:41:59;;;;;;;46.00;32.90;;;15.00;75.00;;;;;;4764063;30;20055;-78
2021/03/25 09:44:27;;;;;;;44.90;31.58;;;14.90;75.50;;;;;;4762349;30;20043;-78
2021/03/25 09:46:53;;;;;;;48.13;30.50;;;15.00;75.30;;;;;;4741895;30;20055;-78
2021/03/25 09:52:12;;;;;;;40.75;28.05;;;15.50;75.10;;;;;;4764417;29;20054;-78
2021/03/25 09:54:53;;;;;;;56.08;34.17;;;15.90;74.20;;;;;;4749234;30;20419;-79
2021/03/25 09:57:32;;;;;;;46.83;32.88;;;16.10;72.70;;;;;;4748194;30;20048;-79
2021/03/25 10:00:17;;;;;;;45.83;31.92;;;16.30;71.60;;;;;;4777560;30;20036;-79
2021/03/25 10:03:05;;;;;;;37.22;26.75;;;16.40;71.30;;;;;;4763193;30;20051;-80
2021/03/25 10:05:32;;;;;;;36.63;24.98;;;16.60;71.30;;;;;;4767820;30;20048;-81
2021/03/25 10:08:08;;;;;;;44.67;29.55;;;16.70;70.60;;;;;;4748774;30;20048;-79
2021/03/25 10:10:49;;;;;;;42.22;29.63;;;16.70;69.70;;;;;;4747439;30;20050;-78
2021/03/25 10:13:19;;;;;;;41.72;28.15;;;16.70;69.10;;;;;;4763306;29;20039;-78
2021/03/25 10:16:00;;;;;;;37.47;26.83;;;16.70;69.10;;;;;;4747814;30;20046;-77
2021/03/25 10:18:26;;;;;;;38.50;26.95;;;16.80;69.40;;;;;;4762694;30;20404;-78
2021/03/25 10:21:20;;;;;;;39.00;28.23;;;16.90;68.90;;;;;;4761940;30;20051;-77
2021/03/25 10:23:49;;;;;;;40.55;28.83;;;16.90;68.20;;;;;;4763153;30;20051;-77
2021/03/25 10:26:38;;;;;;;42.50;27.70;;;17.00;68.40;;;;;;4747332;30;20054;-77
2021/03/25 10:29:11;;;;;;;42.78;28.80;;;17.20;68.20;;;;;;4760473;30;20052;-78
2021/03/25 10:31:46;;;;;;;38.25;27.63;;;17.30;66.90;;;;;;4764364;30;20540;-83
2021/03/25 10:34:15;;;;;;;37.17;27.00;;;17.40;66.80;;;;;;4763053;30;20068;-81
2021/03/25 10:36:53;;;;;;;36.60;26.17;;;17.40;66.40;;;;;;4764110;30;20400;-83
2021/03/25 10:39:25;;;;;;;35.72;26.83;;;17.40;66.10;;;;;;4765818;30;20047;-84
2021/03/25 10:41:53;;;;;;;40.45;27.23;;;17.30;66.50;;;;;;4749098;30;20048;-80
2021/03/25 10:44:32;;;;;;;37.58;25.98;;;17.30;66.10;;;;;;4748967;30;20132;-82
2021/03/25 10:47:04;;;;;;;37.25;24.60;;;17.10;66.20;;;;;;4763107;30;20051;-82
2021/03/25 10:49:41;;;;;;;37.20;25.95;;;17.00;66.30;;;;;;4761051;30;20035;-78
2021/03/25 10:52:23;;;;;;;38.90;25.20;;;17.00;66.30;;;;;;4760566;30;20083;-83
2021/03/25 10:54:50;;;;;;;34.17;24.95;;;17.00;66.40;;;;;;4764564;30;20050;-79
2021/03/25 10:57:17;;;;;;;36.38;24.50;;;17.10;66.70;;;;;;4746946;30;20051;-78
2021/03/25 11:00:00;;;;;;;35.50;25.60;;;17.20;66.30;;;;;;4747091;30;20032;-78
2021/03/25 11:02:29;;;;;;;31.17;23.45;;;17.30;66.10;;;;;;4762100;30;20064;-78
2021/03/25 11:05:14;;;;;;;33.75;24.35;;;17.40;66.10;;;;;;4747193;30;20885;-78
2021/03/25 11:07:47;;;;;;;35.05;24.58;;;17.60;66.20;;;;;;4765542;30;20522;-78
2021/03/25 11:10:26;;;;;;;31.60;20.98;;;18.00;65.60;;;;;;4765675;30;20091;-82
2021/03/25 11:13:02;;;;;;;31.13;22.98;;;18.20;64.80;;;;;;4778609;29;20055;-80
2021/03/25 11:15:38;;;;;;;31.17;21.85;;;18.30;64.30;;;;;;4749320;30;20131;-80
2021/03/25 11:18:37;;;;;;;34.90;24.83;;;18.30;64.00;;;;;;4749435;30;20047;-77
2021/03/25 11:21:05;;;;;;;33.03;24.70;;;18.20;63.70;;;;;;4777877;29;20040;-78
2021/03/25 11:23:33;;;;;;;35.15;24.63;;;18.00;64.40;;;;;;4765576;30;20039;-78
2021/03/25 11:26:02;;;;;;;33.25;24.85;;;17.70;64.50;;;;;;4764413;30;20057;-78
2021/03/25 11:28:35;;;;;;;35.28;27.02;;;17.50;65.40;;;;;;4763589;30;20047;-78
2021/03/25 11:31:27;;;;;;;33.20;25.42;;;17.30;65.80;;;;;;4764336;30;20063;-78
2021/03/25 11:33:55;;;;;;;34.40;25.33;;;17.10;66.40;;;;;;4750346;30;20533;-78
2021/03/25 11:36:43;;;;;;;34.42;22.92;;;17.00;66.90;;;;;;4763351;30;20320;-78
2021/03/25 11:39:21;;;;;;;28.27;21.25;;;16.90;67.40;;;;;;4751809;30;20058;-79
2021/03/25 11:41:51;;;;;;;30.02;22.52;;;16.90;67.50;;;;;;4760464;30;20067;-79
2021/03/25 11:44:40;;;;;;;30.67;23.58;;;16.90;67.40;;;;;;4746025;30;20427;-78
2021/03/25 11:47:22;;;;;;;34.75;24.65;;;16.70;67.60;;;;;;4761809;30;20040;-78
2021/03/25 11:49:49;;;;;;;28.95;23.23;;;16.40;68.80;;;;;;4762830;30;20055;-78
2021/03/25 11:52:16;;;;;;;28.05;23.15;;;16.20;68.90;;;;;;4762047;30;20056;-78
2021/03/25 11:54:44;;;;;;;28.67;21.75;;;16.10;69.70;;;;;;4749069;30;20043;-80
2021/03/25 11:57:23;;;;;;;28.65;22.05;;;16.00;70.30;;;;;;4761699;30;20058;-77
2021/03/25 12:00:06;;;;;;;25.98;19.90;;;15.90;71.00;;;;;;4761375;30;20051;-78
2021/03/25 12:02:43;;;;;;;23.55;19.42;;;15.80;71.50;;;;;;4759903;30;20052;-79
2021/03/25 12:05:29;;;;;;;23.67;18.83;;;15.80;72.40;;;;;;4760680;30;20515;-78
2021/03/25 12:08:19;;;;;;;21.95;17.20;;;15.80;71.70;;;;;;4746521;30;20519;-78
2021/03/25 12:10:55;;;;;;;17.90;15.10;;;15.70;71.70;;;;;;4758356;30;20060;-78
2021/03/25 12:13:23;;;;;;;20.17;14.70;;;15.60;72.00;;;;;;4759455;30;20051;-78
2021/03/25 12:15:50;;;;;;;16.13;11.65;;;15.50;72.40;;;;;;4746139;30;20051;-78
2021/03/25 12:18:24;;;;;;;21.48;14.23;;;15.40;73.20;;;;;;4761527;30;20070;-78
2021/03/25 12:20:51;;;;;;;16.23;13.43;;;15.40;72.80;;;;;;4747227;30;20032;-78
2021/03/25 12:23:24;;;;;;;14.50;12.52;;;15.40;72.90;;;;;;4760095;30;20552;-78
2021/03/25 12:25:53;;;;;;;19.35;15.10;;;15.60;72.70;;;;;;4747296;30;20482;-78
2021/03/25 12:28:20;;;;;;;18.55;13.23;;;15.80;72.10;;;;;;4762342;30;20054;-78
2021/03/25 12:30:47;;;;;;;17.73;13.57;;;15.80;71.50;;;;;;4745533;30;20055;-78
2021/03/25 12:33:29;;;;;;;14.38;11.82;;;15.80;71.10;;;;;;4759413;30;20369;-78
2021/03/25 12:35:58;;;;;;;19.60;13.57;;;15.60;71.40;;;;;;4762473;29;20078;-78
2021/03/25 12:38:26;;;;;;;18.95;15.45;;;15.40;71.90;;;;;;4753627;30;20039;-78
2021/03/25 12:40:53;;;;;;;16.55;13.45;;;15.20;72.30;;;;;;4762318;29;20075;-78
2021/03/25 12:43:23;;;;;;;16.30;13.00;;;14.90;73.30;;;;;;4761170;30;20040;-78
2021/03/25 12:45:54;;;;;;;19.42;16.25;;;14.70;73.40;;;;;;4761692;30;20091;-78
2021/03/25 12:48:23;;;;;;;24.23;18.67;;;14.50;74.10;;;;;;4764229;30;20047;-78
2021/03/25 12:50:51;;;;;;;19.13;15.25;;;14.30;75.60;;;;;;4749842;30;20059;-78
2021/03/25 12:53:19;;;;;;;17.02;14.10;;;14.00;76.30;;;;;;4759451;30;20039;-78
2021/03/25 12:55:46;;;;;;;14.15;12.40;;;13.80;76.90;;;;;;4760920;30;20039;-78
2021/03/25 12:58:32;;;;;;;15.73;12.68;;;13.70;78.10;;;;;;4749666;30;20047;-78
2021/03/25 13:01:03;;;;;;;16.08;13.60;;;13.60;78.40;;;;;;4760564;30;20504;-78
2021/03/25 13:03:29;;;;;;;18.42;13.52;;;13.50;79.10;;;;;;4760466;30;20035;-78
2021/03/25 13:05:56;;;;;;;17.23;13.32;;;13.40;79.50;;;;;;4761691;30;20051;-78
2021/03/25 13:08:23;;;;;;;17.17;12.70;;;13.30;79.90;;;;;;4760625;30;20518;-78
2021/03/25 13:10:49;;;;;;;17.08;12.57;;;13.20;80.20;;;;;;4760386;30;20063;-78
2021/03/25 13:13:16;;;;;;;17.52;11.25;;;13.20;80.50;;;;;;4749160;30;20066;-78
2021/03/25 13:15:42;;;;;;;17.67;13.23;;;13.10;80.90;;;;;;4761471;30;20087;-78
2021/03/25 13:18:09;;;;;;;16.85;13.60;;;13.00;81.40;;;;;;4736637;30;20054;-78
2021/03/25 13:20:36;;;;;;;19.27;13.07;;;13.00;82.00;;;;;;4730497;30;20040;-78
2021/03/25 13:23:04;;;;;;;19.40;13.20;;;12.90;82.40;;;;;;4759938;30;20050;-78
2021/03/25 13:25:34;;;;;;;21.50;15.20;;;12.90;82.90;;;;;;4768108;30;20587;-78
2021/03/25 13:28:02;;;;;;;20.33;15.38;;;13.10;83.20;;;;;;4766320;30;20040;-78
2021/03/25 13:30:29;;;;;;;20.33;14.38;;;13.20;83.20;;;;;;4761936;30;20507;-78
2021/03/25 13:32:56;;;;;;;17.55;13.80;;;13.40;83.10;;;;;;4744305;30;20055;-78